Calumet, MI

6:52 AM EST on February 28, 2017 (GMT -0500)
Calumet Township North End | | Change Station

Elev 1224 ft 47.25 °N, 88.44 °W | Updated 34 seconds ago

Snow
Snow
30.8 °F
Feels Like 31 °F
N
3.0
Wind Variable Wind from South

Today
High -- | Low -- °F
--% Chance of Precip.
Yesterday
High -- | Low -- °F
Precip. -- in
Pressure 29.82 in
Visibility 8.0 miles
Clouds Mostly Cloudy 3200 ft
Overcast 4900 ft
Windchill 31 °F
Dew Point 29 °F
Humidity 96%
Rainfall 0.00 in
Snow Depth Not available.
7:35 AM 6:37 PM
Waxing Crescent, 4% visible
SPECI KCMX 281149Z AUTO 09007KT 8SM -FZRA BKN032 OVC049 01/M04 A2982 RMK AO2 UPB31E43FZRAB43 P0000 I1001
Pressure 29.82 in
Visibility 8.0 miles
Clouds Mostly Cloudy 3200 ft
Overcast 4900 ft
Windchill 31 °F
Dew Point 29 °F
Humidity 96%
Rainfall 0.00 in
Snow Depth Not available.
7:35 AM 6:37 PM
Waxing Crescent, 4% visible
SPECI KCMX 281149Z AUTO 09007KT 8SM -FZRA BKN032 OVC049 01/M04 A2982 RMK AO2 UPB31E43FZRAB43 P0000 I1001

Get Your Daily Forecast Email!

Thanks for signing up!

Be on the lookout for a verification email in your inbox.

You'll start receiving the daily forecast at 8 AM.

×

10-Day Weather Forecast

Almanac

Astronomy

Feb. 28, 2017 Rise Set
Actual Time
Civil Twilight
Nautical Twilight
Astronomical Twilight
Moon
Length of Visible Light
Length of Day
Tomorrow will be .
, % of the Moon is Illuminated

Today's Extremes

State Highs State Lows

Community

WunderPhotos

Upload Photos

1,962,540 photos uploaded!

WunderBlog® & News

Nearby

Air Quality

  Air Quality AQ Index Pollutant
Not available.

Snow Depth

Station Depth Elevation

Earthquake Activity

City Distance Mag. Time & Date
Minimum magnitude displayed is 2.5.

Coastal Water Temperatures

Place Temperature

Stations

Nearby Weather Stations

Station Location Temp. Windchill Dew Point Humidity Wind Precip. Elev Updated Type
                   

Watches & Warnings

There are currently no watches in effect.